sensor_id;sensor_type;location;lat;lon;timestamp;P1;durP1;ratioP1;P2;durP2;ratioP2
65469;SDS011;52067;50.710;14.492;2023-04-25T00:01:44;3.78;;;2.80;;
65469;SDS011;52067;50.710;14.492;2023-04-25T00:04:10;7.60;;;3.10;;
65469;SDS011;52067;50.710;14.492;2023-04-25T00:06:37;4.53;;;2.72;;
65469;SDS011;52067;50.710;14.492;2023-04-25T00:09:03;4.53;;;2.85;;
65469;SDS011;52067;50.710;14.492;2023-04-25T00:11:32;8.30;;;2.70;;
65469;SDS011;52067;50.710;14.492;2023-04-25T00:13:58;6.25;;;2.83;;
65469;SDS011;52067;50.710;14.492;2023-04-25T00:16:24;4.22;;;2.83;;
65469;SDS011;52067;50.710;14.492;2023-04-25T00:18:50;4.45;;;3.00;;
65469;SDS011;52067;50.710;14.492;2023-04-25T00:21:18;5.65;;;3.03;;
65469;SDS011;52067;50.710;14.492;2023-04-25T00:23:44;4.63;;;3.00;;
65469;SDS011;52067;50.710;14.492;2023-04-25T00:26:10;5.97;;;3.20;;
65469;SDS011;52067;50.710;14.492;2023-04-25T00:28:36;5.47;;;3.25;;
65469;SDS011;52067;50.710;14.492;2023-04-25T00:31:02;4.82;;;2.97;;
65469;SDS011;52067;50.710;14.492;2023-04-25T00:33:28;4.63;;;3.17;;
65469;SDS011;52067;50.710;14.492;2023-04-25T00:35:54;6.80;;;3.95;;
65469;SDS011;52067;50.710;14.492;2023-04-25T00:38:19;4.97;;;3.13;;
65469;SDS011;52067;50.710;14.492;2023-04-25T00:40:45;3.65;;;2.53;;
65469;SDS011;52067;50.710;14.492;2023-04-25T00:43:10;6.07;;;2.90;;
65469;SDS011;52067;50.710;14.492;2023-04-25T00:45:36;5.97;;;2.58;;
65469;SDS011;52067;50.710;14.492;2023-04-25T00:48:04;6.03;;;2.80;;
65469;SDS011;52067;50.710;14.492;2023-04-25T00:50:29;3.83;;;2.50;;
65469;SDS011;52067;50.710;14.492;2023-04-25T00:52:55;3.70;;;2.60;;
65469;SDS011;52067;50.710;14.492;2023-04-25T00:55:20;5.15;;;2.85;;
65469;SDS011;52067;50.710;14.492;2023-04-25T00:57:46;10.65;;;3.10;;
65469;SDS011;52067;50.710;14.492;2023-04-25T01:00:12;3.80;;;2.88;;
65469;SDS011;52067;50.710;14.492;2023-04-25T01:02:39;6.22;;;3.20;;
65469;SDS011;52067;50.710;14.492;2023-04-25T01:05:07;4.00;;;2.90;;
65469;SDS011;52067;50.710;14.492;2023-04-25T01:07:33;5.03;;;2.92;;
65469;SDS011;52067;50.710;14.492;2023-04-25T01:09:59;5.30;;;3.25;;
65469;SDS011;52067;50.710;14.492;2023-04-25T01:12:24;5.13;;;3.25;;
65469;SDS011;52067;50.710;14.492;2023-04-25T01:14:50;6.07;;;3.00;;
65469;SDS011;52067;50.710;14.492;2023-04-25T01:17:16;6.05;;;3.10;;
65469;SDS011;52067;50.710;14.492;2023-04-25T01:19:44;6.20;;;3.20;;
65469;SDS011;52067;50.710;14.492;2023-04-25T01:22:12;8.63;;;3.42;;
65469;SDS011;52067;50.710;14.492;2023-04-25T01:24:39;5.13;;;3.20;;
65469;SDS011;52067;50.710;14.492;2023-04-25T01:27:05;6.35;;;3.00;;
65469;SDS011;52067;50.710;14.492;2023-04-25T01:29:32;6.50;;;3.03;;
65469;SDS011;52067;50.710;14.492;2023-04-25T01:31:59;4.70;;;3.20;;
65469;SDS011;52067;50.710;14.492;2023-04-25T01:34:25;6.78;;;3.22;;
65469;SDS011;52067;50.710;14.492;2023-04-25T01:36:51;4.88;;;3.20;;
65469;SDS011;52067;50.710;14.492;2023-04-25T01:39:17;7.20;;;3.40;;
65469;SDS011;52067;50.710;14.492;2023-04-25T01:41:43;5.45;;;3.13;;
65469;SDS011;52067;50.710;14.492;2023-04-25T01:44:08;5.93;;;3.05;;
65469;SDS011;52067;50.710;14.492;2023-04-25T01:46:34;7.05;;;3.20;;
65469;SDS011;52067;50.710;14.492;2023-04-25T01:49:00;5.20;;;3.28;;
65469;SDS011;52067;50.710;14.492;2023-04-25T01:51:25;9.18;;;4.28;;
65469;SDS011;52067;50.710;14.492;2023-04-25T01:53:51;9.15;;;3.13;;
65469;SDS011;52067;50.710;14.492;2023-04-25T01:56:18;9.13;;;3.80;;
65469;SDS011;52067;50.710;14.492;2023-04-25T01:58:43;7.05;;;3.30;;
65469;SDS011;52067;50.710;14.492;2023-04-25T02:01:09;6.88;;;3.40;;
65469;SDS011;52067;50.710;14.492;2023-04-25T02:03:35;6.75;;;3.22;;
65469;SDS011;52067;50.710;14.492;2023-04-25T02:06:01;4.75;;;3.17;;
65469;SDS011;52067;50.710;14.492;2023-04-25T02:08:26;4.63;;;3.15;;
65469;SDS011;52067;50.710;14.492;2023-04-25T02:10:52;7.57;;;3.35;;
65469;SDS011;52067;50.710;14.492;2023-04-25T02:13:17;5.30;;;3.25;;
65469;SDS011;52067;50.710;14.492;2023-04-25T02:15:42;4.82;;;3.28;;
65469;SDS011;52067;50.710;14.492;2023-04-25T02:18:08;4.90;;;3.28;;
65469;SDS011;52067;50.710;14.492;2023-04-25T02:20:35;9.27;;;3.50;;
65469;SDS011;52067;50.710;14.492;2023-04-25T02:23:01;7.05;;;3.50;;
65469;SDS011;52067;50.710;14.492;2023-04-25T02:25:27;5.05;;;3.33;;
65469;SDS011;52067;50.710;14.492;2023-04-25T02:27:52;6.93;;;3.70;;
65469;SDS011;52067;50.710;14.492;2023-04-25T02:30:18;5.65;;;2.92;;
65469;SDS011;52067;50.710;14.492;2023-04-25T02:32:44;9.27;;;4.28;;
65469;SDS011;52067;50.710;14.492;2023-04-25T02:35:10;9.15;;;4.32;;
65469;SDS011;52067;50.710;14.492;2023-04-25T02:37:38;7.70;;;4.07;;
65469;SDS011;52067;50.710;14.492;2023-04-25T02:40:05;5.97;;;3.60;;
65469;SDS011;52067;50.710;14.492;2023-04-25T02:42:31;6.50;;;3.03;;
65469;SDS011;52067;50.710;14.492;2023-04-25T02:44:57;8.15;;;4.03;;
65469;SDS011;52067;50.710;14.492;2023-04-25T02:47:23;6.35;;;3.50;;
65469;SDS011;52067;50.710;14.492;2023-04-25T02:49:48;7.38;;;3.78;;
65469;SDS011;52067;50.710;14.492;2023-04-25T02:52:13;7.75;;;3.45;;
65469;SDS011;52067;50.710;14.492;2023-04-25T02:54:42;4.32;;;3.05;;
65469;SDS011;52067;50.710;14.492;2023-04-25T02:57:07;7.75;;;3.65;;
65469;SDS011;52067;50.710;14.492;2023-04-25T02:59:33;9.00;;;4.65;;
65469;SDS011;52067;50.710;14.492;2023-04-25T03:01:58;8.10;;;4.40;;
65469;SDS011;52067;50.710;14.492;2023-04-25T03:04:24;8.85;;;4.40;;
65469;SDS011;52067;50.710;14.492;2023-04-25T03:06:50;7.57;;;4.18;;
65469;SDS011;52067;50.710;14.492;2023-04-25T03:09:15;8.63;;;4.68;;
65469;SDS011;52067;50.710;14.492;2023-04-25T03:11:41;9.60;;;4.70;;
65469;SDS011;52067;50.710;14.492;2023-04-25T03:14:07;6.95;;;3.90;;
65469;SDS011;52067;50.710;14.492;2023-04-25T03:16:32;6.93;;;4.00;;
65469;SDS011;52067;50.710;14.492;2023-04-25T03:18:58;6.50;;;3.88;;
65469;SDS011;52067;50.710;14.492;2023-04-25T03:21:24;9.60;;;3.92;;
65469;SDS011;52067;50.710;14.492;2023-04-25T03:23:50;6.32;;;3.97;;
65469;SDS011;52067;50.710;14.492;2023-04-25T03:26:15;11.40;;;5.60;;
65469;SDS011;52067;50.710;14.492;2023-04-25T03:28:41;10.23;;;5.93;;
65469;SDS011;52067;50.710;14.492;2023-04-25T03:31:06;27.85;;;10.75;;
65469;SDS011;52067;50.710;14.492;2023-04-25T03:33:32;26.42;;;10.63;;
65469;SDS011;52067;50.710;14.492;2023-04-25T03:35:57;28.25;;;10.57;;
65469;SDS011;52067;50.710;14.492;2023-04-25T03:38:22;20.08;;;9.30;;
65469;SDS011;52067;50.710;14.492;2023-04-25T03:40:49;19.10;;;8.02;;
65469;SDS011;52067;50.710;14.492;2023-04-25T03:43:15;16.60;;;7.85;;
65469;SDS011;52067;50.710;14.492;2023-04-25T03:45:41;20.20;;;7.32;;
65469;SDS011;52067;50.710;14.492;2023-04-25T03:48:06;22.05;;;11.13;;
65469;SDS011;52067;50.710;14.492;2023-04-25T03:50:32;27.20;;;12.73;;
65469;SDS011;52067;50.710;14.492;2023-04-25T03:52:57;26.90;;;13.02;;
65469;SDS011;52067;50.710;14.492;2023-04-25T03:55:23;28.85;;;12.30;;
65469;SDS011;52067;50.710;14.492;2023-04-25T03:57:48;30.35;;;12.93;;
65469;SDS011;52067;50.710;14.492;2023-04-25T04:00:14;34.50;;;14.05;;
65469;SDS011;52067;50.710;14.492;2023-04-25T04:02:40;25.33;;;10.65;;
65469;SDS011;52067;50.710;14.492;2023-04-25T04:05:05;27.85;;;11.38;;
65469;SDS011;52067;50.710;14.492;2023-04-25T04:07:31;25.55;;;11.10;;
65469;SDS011;52067;50.710;14.492;2023-04-25T04:09:58;15.48;;;7.78;;
65469;SDS011;52067;50.710;14.492;2023-04-25T04:12:23;8.75;;;5.07;;
65469;SDS011;52067;50.710;14.492;2023-04-25T04:14:49;8.27;;;4.88;;
65469;SDS011;52067;50.710;14.492;2023-04-25T04:17:14;8.43;;;4.97;;
65469;SDS011;52067;50.710;14.492;2023-04-25T04:19:40;10.27;;;5.10;;
65469;SDS011;52067;50.710;14.492;2023-04-25T04:22:06;11.63;;;5.32;;
65469;SDS011;52067;50.710;14.492;2023-04-25T04:24:31;11.13;;;5.88;;
65469;SDS011;52067;50.710;14.492;2023-04-25T04:26:57;8.90;;;5.25;;
65469;SDS011;52067;50.710;14.492;2023-04-25T04:29:23;11.40;;;6.82;;
65469;SDS011;52067;50.710;14.492;2023-04-25T04:31:49;14.00;;;7.55;;
65469;SDS011;52067;50.710;14.492;2023-04-25T04:34:18;16.98;;;8.07;;
65469;SDS011;52067;50.710;14.492;2023-04-25T04:36:44;21.10;;;9.00;;
65469;SDS011;52067;50.710;14.492;2023-04-25T04:39:11;17.67;;;8.75;;
65469;SDS011;52067;50.710;14.492;2023-04-25T04:41:37;17.08;;;8.93;;
65469;SDS011;52067;50.710;14.492;2023-04-25T04:44:03;15.07;;;7.72;;
65469;SDS011;52067;50.710;14.492;2023-04-25T04:46:28;28.92;;;10.50;;
65469;SDS011;52067;50.710;14.492;2023-04-25T04:48:55;32.15;;;12.63;;
65469;SDS011;52067;50.710;14.492;2023-04-25T04:51:21;24.17;;;11.05;;
65469;SDS011;52067;50.710;14.492;2023-04-25T04:53:46;33.90;;;12.13;;
65469;SDS011;52067;50.710;14.492;2023-04-25T04:56:12;25.15;;;11.93;;
65469;SDS011;52067;50.710;14.492;2023-04-25T04:58:37;23.98;;;11.18;;
65469;SDS011;52067;50.710;14.492;2023-04-25T05:01:03;24.60;;;11.45;;
65469;SDS011;52067;50.710;14.492;2023-04-25T05:03:28;23.23;;;11.32;;
65469;SDS011;52067;50.710;14.492;2023-04-25T05:05:54;27.90;;;10.77;;
65469;SDS011;52067;50.710;14.492;2023-04-25T05:08:20;25.85;;;12.55;;
65469;SDS011;52067;50.710;14.492;2023-04-25T05:10:45;28.25;;;12.43;;
65469;SDS011;52067;50.710;14.492;2023-04-25T05:13:11;37.80;;;16.05;;
65469;SDS011;52067;50.710;14.492;2023-04-25T05:15:36;25.88;;;12.48;;
65469;SDS011;52067;50.710;14.492;2023-04-25T05:18:02;22.50;;;10.73;;
65469;SDS011;52067;50.710;14.492;2023-04-25T05:20:27;27.75;;;12.73;;
65469;SDS011;52067;50.710;14.492;2023-04-25T05:22:52;22.42;;;8.43;;
65469;SDS011;52067;50.710;14.492;2023-04-25T05:25:18;18.10;;;9.48;;
65469;SDS011;52067;50.710;14.492;2023-04-25T05:27:43;15.43;;;7.63;;
65469;SDS011;52067;50.710;14.492;2023-04-25T05:30:09;36.78;;;17.90;;
65469;SDS011;52067;50.710;14.492;2023-04-25T05:32:34;18.92;;;9.00;;
65469;SDS011;52067;50.710;14.492;2023-04-25T05:35:00;17.30;;;7.47;;
65469;SDS011;52067;50.710;14.492;2023-04-25T05:37:26;13.93;;;5.53;;
65469;SDS011;52067;50.710;14.492;2023-04-25T05:39:51;15.73;;;6.15;;
65469;SDS011;52067;50.710;14.492;2023-04-25T05:42:16;12.05;;;6.47;;
65469;SDS011;52067;50.710;14.492;2023-04-25T05:44:42;10.07;;;5.28;;
65469;SDS011;52067;50.710;14.492;2023-04-25T05:47:07;9.63;;;4.90;;
65469;SDS011;52067;50.710;14.492;2023-04-25T05:49:33;8.98;;;4.90;;
65469;SDS011;52067;50.710;14.492;2023-04-25T05:51:59;15.98;;;6.95;;
65469;SDS011;52067;50.710;14.492;2023-04-25T05:54:24;19.95;;;8.13;;
65469;SDS011;52067;50.710;14.492;2023-04-25T05:56:50;18.45;;;9.23;;
65469;SDS011;52067;50.710;14.492;2023-04-25T05:59:15;19.95;;;8.50;;
65469;SDS011;52067;50.710;14.492;2023-04-25T06:01:41;12.70;;;6.13;;
65469;SDS011;52067;50.710;14.492;2023-04-25T06:04:07;14.73;;;6.47;;
65469;SDS011;52067;50.710;14.492;2023-04-25T06:06:32;8.45;;;4.72;;
65469;SDS011;52067;50.710;14.492;2023-04-25T06:08:57;10.52;;;4.22;;
65469;SDS011;52067;50.710;14.492;2023-04-25T06:11:23;7.95;;;4.05;;
65469;SDS011;52067;50.710;14.492;2023-04-25T06:13:48;8.40;;;4.65;;
65469;SDS011;52067;50.710;14.492;2023-04-25T06:16:14;9.57;;;4.07;;
65469;SDS011;52067;50.710;14.492;2023-04-25T06:18:39;5.57;;;3.40;;
65469;SDS011;52067;50.710;14.492;2023-04-25T06:21:05;6.53;;;3.65;;
65469;SDS011;52067;50.710;14.492;2023-04-25T06:23:30;8.15;;;4.30;;
65469;SDS011;52067;50.710;14.492;2023-04-25T06:25:56;6.50;;;3.50;;
65469;SDS011;52067;50.710;14.492;2023-04-25T06:28:21;8.40;;;4.28;;
65469;SDS011;52067;50.710;14.492;2023-04-25T06:30:48;7.45;;;4.00;;
65469;SDS011;52067;50.710;14.492;2023-04-25T06:33:13;9.20;;;4.15;;
65469;SDS011;52067;50.710;14.492;2023-04-25T06:35:39;8.00;;;3.70;;
65469;SDS011;52067;50.710;14.492;2023-04-25T06:38:04;7.13;;;3.45;;
65469;SDS011;52067;50.710;14.492;2023-04-25T06:40:30;9.98;;;4.03;;
65469;SDS011;52067;50.710;14.492;2023-04-25T06:42:55;8.20;;;3.83;;
65469;SDS011;52067;50.710;14.492;2023-04-25T06:45:21;10.07;;;4.72;;
65469;SDS011;52067;50.710;14.492;2023-04-25T06:47:46;8.93;;;4.07;;
65469;SDS011;52067;50.710;14.492;2023-04-25T06:50:11;6.68;;;3.80;;
65469;SDS011;52067;50.710;14.492;2023-04-25T06:52:37;6.50;;;3.63;;
65469;SDS011;52067;50.710;14.492;2023-04-25T06:55:02;7.38;;;4.10;;
65469;SDS011;52067;50.710;14.492;2023-04-25T06:57:29;7.50;;;3.85;;
65469;SDS011;52067;50.710;14.492;2023-04-25T06:59:55;7.05;;;4.03;;
65469;SDS011;52067;50.710;14.492;2023-04-25T07:02:20;9.23;;;4.47;;
65469;SDS011;52067;50.710;14.492;2023-04-25T07:04:46;10.15;;;4.70;;
65469;SDS011;52067;50.710;14.492;2023-04-25T07:07:12;5.25;;;3.33;;
65469;SDS011;52067;50.710;14.492;2023-04-25T07:09:37;7.78;;;3.80;;
65469;SDS011;52067;50.710;14.492;2023-04-25T07:12:02;11.30;;;4.70;;
65469;SDS011;52067;50.710;14.492;2023-04-25T07:14:28;7.93;;;4.47;;
65469;SDS011;52067;50.710;14.492;2023-04-25T07:16:53;7.13;;;3.75;;
65469;SDS011;52067;50.710;14.492;2023-04-25T07:19:21;7.70;;;4.20;;
65469;SDS011;52067;50.710;14.492;2023-04-25T07:21:46;7.70;;;3.95;;
65469;SDS011;52067;50.710;14.492;2023-04-25T07:24:12;6.40;;;4.10;;
65469;SDS011;52067;50.710;14.492;2023-04-25T07:26:37;7.65;;;3.63;;
65469;SDS011;52067;50.710;14.492;2023-04-25T07:29:03;7.82;;;4.22;;
65469;SDS011;52067;50.710;14.492;2023-04-25T07:31:28;10.02;;;4.15;;
65469;SDS011;52067;50.710;14.492;2023-04-25T07:33:54;7.88;;;4.50;;
65469;SDS011;52067;50.710;14.492;2023-04-25T07:36:19;6.40;;;4.07;;
65469;SDS011;52067;50.710;14.492;2023-04-25T07:38:44;12.77;;;5.43;;
65469;SDS011;52067;50.710;14.492;2023-04-25T07:41:10;6.88;;;4.72;;
65469;SDS011;52067;50.710;14.492;2023-04-25T07:43:35;8.52;;;4.43;;
65469;SDS011;52067;50.710;14.492;2023-04-25T07:46:00;11.82;;;4.68;;
65469;SDS011;52067;50.710;14.492;2023-04-25T07:48:26;7.50;;;4.15;;
65469;SDS011;52067;50.710;14.492;2023-04-25T07:50:51;8.48;;;4.70;;
65469;SDS011;52067;50.710;14.492;2023-04-25T07:53:17;7.47;;;4.35;;
65469;SDS011;52067;50.710;14.492;2023-04-25T07:55:43;6.72;;;4.47;;
65469;SDS011;52067;50.710;14.492;2023-04-25T07:58:08;7.78;;;4.38;;
65469;SDS011;52067;50.710;14.492;2023-04-25T08:00:35;9.32;;;4.28;;
65469;SDS011;52067;50.710;14.492;2023-04-25T08:03:01;7.32;;;3.75;;
65469;SDS011;52067;50.710;14.492;2023-04-25T08:05:26;6.93;;;3.85;;
65469;SDS011;52067;50.710;14.492;2023-04-25T08:07:51;13.63;;;4.20;;
65469;SDS011;52067;50.710;14.492;2023-04-25T08:10:17;10.13;;;3.85;;
65469;SDS011;52067;50.710;14.492;2023-04-25T08:12:42;5.80;;;3.70;;
65469;SDS011;52067;50.710;14.492;2023-04-25T08:15:08;7.93;;;3.47;;
65469;SDS011;52067;50.710;14.492;2023-04-25T08:17:34;3.95;;;2.45;;
65469;SDS011;52067;50.710;14.492;2023-04-25T08:19:59;5.20;;;3.35;;
65469;SDS011;52067;50.710;14.492;2023-04-25T08:22:25;7.53;;;3.53;;
65469;SDS011;52067;50.710;14.492;2023-04-25T08:24:50;7.10;;;3.33;;
65469;SDS011;52067;50.710;14.492;2023-04-25T08:27:16;5.00;;;3.38;;
65469;SDS011;52067;50.710;14.492;2023-04-25T08:29:42;9.43;;;3.67;;
65469;SDS011;52067;50.710;14.492;2023-04-25T08:32:08;5.45;;;2.72;;
65469;SDS011;52067;50.710;14.492;2023-04-25T08:34:33;8.45;;;3.67;;
65469;SDS011;52067;50.710;14.492;2023-04-25T08:36:58;6.60;;;4.22;;
65469;SDS011;52067;50.710;14.492;2023-04-25T08:39:24;7.57;;;4.10;;
65469;SDS011;52067;50.710;14.492;2023-04-25T08:41:49;9.80;;;4.25;;
65469;SDS011;52067;50.710;14.492;2023-04-25T08:44:15;7.00;;;3.88;;
65469;SDS011;52067;50.710;14.492;2023-04-25T08:46:41;5.70;;;3.67;;
65469;SDS011;52067;50.710;14.492;2023-04-25T08:49:07;5.85;;;3.55;;
65469;SDS011;52067;50.710;14.492;2023-04-25T08:51:36;7.70;;;3.65;;
65469;SDS011;52067;50.710;14.492;2023-04-25T08:54:10;7.82;;;4.00;;
65469;SDS011;52067;50.710;14.492;2023-04-25T08:56:43;8.88;;;3.70;;
65469;SDS011;52067;50.710;14.492;2023-04-25T08:59:11;6.75;;;4.03;;
65469;SDS011;52067;50.710;14.492;2023-04-25T09:01:37;5.78;;;3.30;;
65469;SDS011;52067;50.710;14.492;2023-04-25T09:04:02;5.43;;;3.50;;
65469;SDS011;52067;50.710;14.492;2023-04-25T09:06:28;8.32;;;3.90;;
65469;SDS011;52067;50.710;14.492;2023-04-25T09:08:55;8.63;;;3.42;;
65469;SDS011;52067;50.710;14.492;2023-04-25T09:11:26;8.65;;;2.80;;
65469;SDS011;52067;50.710;14.492;2023-04-25T09:13:54;4.78;;;2.85;;
65469;SDS011;52067;50.710;14.492;2023-04-25T09:16:35;3.95;;;3.00;;
65469;SDS011;52067;50.710;14.492;2023-04-25T09:19:20;5.53;;;2.90;;
65469;SDS011;52067;50.710;14.492;2023-04-25T09:21:48;4.80;;;2.50;;
65469;SDS011;52067;50.710;14.492;2023-04-25T09:24:15;4.88;;;2.40;;
65469;SDS011;52067;50.710;14.492;2023-04-25T09:26:40;3.72;;;2.50;;
65469;SDS011;52067;50.710;14.492;2023-04-25T09:29:06;4.32;;;2.45;;
65469;SDS011;52067;50.710;14.492;2023-04-25T09:31:32;4.95;;;2.50;;
65469;SDS011;52067;50.710;14.492;2023-04-25T09:33:59;6.45;;;2.55;;
65469;SDS011;52067;50.710;14.492;2023-04-25T09:36:29;3.55;;;2.70;;
65469;SDS011;52067;50.710;14.492;2023-04-25T09:38:55;6.70;;;3.13;;
65469;SDS011;52067;50.710;14.492;2023-04-25T09:41:24;8.23;;;3.05;;
65469;SDS011;52067;50.710;14.492;2023-04-25T09:43:50;6.03;;;2.47;;
65469;SDS011;52067;50.710;14.492;2023-04-25T09:46:15;6.22;;;2.90;;
65469;SDS011;52067;50.710;14.492;2023-04-25T09:48:48;6.47;;;3.05;;
65469;SDS011;52067;50.710;14.492;2023-04-25T09:51:15;9.13;;;3.60;;
65469;SDS011;52067;50.710;14.492;2023-04-25T09:53:41;6.40;;;3.08;;
65469;SDS011;52067;50.710;14.492;2023-04-25T09:56:16;9.95;;;2.97;;
65469;SDS011;52067;50.710;14.492;2023-04-25T09:58:43;4.43;;;3.05;;
65469;SDS011;52067;50.710;14.492;2023-04-25T10:01:09;5.57;;;3.30;;
65469;SDS011;52067;50.710;14.492;2023-04-25T10:03:36;6.72;;;3.83;;
65469;SDS011;52067;50.710;14.492;2023-04-25T10:06:08;6.68;;;3.45;;
65469;SDS011;52067;50.710;14.492;2023-04-25T10:08:37;8.73;;;3.22;;
65469;SDS011;52067;50.710;14.492;2023-04-25T10:11:06;8.30;;;3.50;;
65469;SDS011;52067;50.710;14.492;2023-04-25T10:13:33;5.28;;;3.13;;
65469;SDS011;52067;50.710;14.492;2023-04-25T10:16:00;7.68;;;3.03;;
65469;SDS011;52067;50.710;14.492;2023-04-25T10:18:27;5.22;;;3.22;;
65469;SDS011;52067;50.710;14.492;2023-04-25T10:20:54;5.40;;;2.83;;
65469;SDS011;52067;50.710;14.492;2023-04-25T10:23:21;6.25;;;3.25;;
65469;SDS011;52067;50.710;14.492;2023-04-25T10:25:46;4.70;;;2.55;;
65469;SDS011;52067;50.710;14.492;2023-04-25T10:28:12;7.22;;;2.88;;
65469;SDS011;52067;50.710;14.492;2023-04-25T10:30:38;4.10;;;2.70;;
65469;SDS011;52067;50.710;14.492;2023-04-25T10:33:29;6.20;;;2.60;;
65469;SDS011;52067;50.710;14.492;2023-04-25T10:35:58;13.35;;;3.35;;
65469;SDS011;52067;50.710;14.492;2023-04-25T10:38:24;7.28;;;3.15;;
65469;SDS011;52067;50.710;14.492;2023-04-25T10:41:07;6.20;;;2.95;;
65469;SDS011;52067;50.710;14.492;2023-04-25T10:43:34;6.57;;;2.83;;
65469;SDS011;52067;50.710;14.492;2023-04-25T10:46:36;5.28;;;2.33;;
65469;SDS011;52067;50.710;14.492;2023-04-25T10:49:01;5.38;;;2.75;;
65469;SDS011;52067;50.710;14.492;2023-04-25T10:51:28;5.13;;;2.50;;
65469;SDS011;52067;50.710;14.492;2023-04-25T10:53:59;5.78;;;2.50;;
65469;SDS011;52067;50.710;14.492;2023-04-25T10:59:17;5.53;;;2.55;;
65469;SDS011;52067;50.710;14.492;2023-04-25T11:01:45;6.43;;;2.80;;
65469;SDS011;52067;50.710;14.492;2023-04-25T11:09:15;4.15;;;2.67;;
65469;SDS011;52067;50.710;14.492;2023-04-25T11:11:41;10.32;;;2.83;;
65469;SDS011;52067;50.710;14.492;2023-04-25T11:14:06;9.75;;;2.78;;
65469;SDS011;52067;50.710;14.492;2023-04-25T11:16:32;4.55;;;2.45;;
65469;SDS011;52067;50.710;14.492;2023-04-25T11:22:19;5.68;;;2.65;;
65469;SDS011;52067;50.710;14.492;2023-04-25T11:24:46;3.42;;;2.40;;
65469;SDS011;52067;50.710;14.492;2023-04-25T11:27:11;6.95;;;2.85;;
65469;SDS011;52067;50.710;14.492;2023-04-25T11:29:37;5.32;;;2.90;;
65469;SDS011;52067;50.710;14.492;2023-04-25T11:32:02;5.32;;;3.13;;
65469;SDS011;52067;50.710;14.492;2023-04-25T11:34:28;4.97;;;2.67;;
65469;SDS011;52067;50.710;14.492;2023-04-25T11:37:01;6.72;;;2.78;;
65469;SDS011;52067;50.710;14.492;2023-04-25T11:39:27;4.78;;;2.90;;
65469;SDS011;52067;50.710;14.492;2023-04-25T11:41:54;5.22;;;3.10;;
65469;SDS011;52067;50.710;14.492;2023-04-25T11:44:20;7.13;;;3.80;;
65469;SDS011;52067;50.710;14.492;2023-04-25T11:46:46;6.05;;;3.05;;
65469;SDS011;52067;50.710;14.492;2023-04-25T11:49:15;5.97;;;3.28;;
65469;SDS011;52067;50.710;14.492;2023-04-25T11:51:43;8.27;;;3.67;;
65469;SDS011;52067;50.710;14.492;2023-04-25T11:54:10;7.28;;;3.75;;
65469;SDS011;52067;50.710;14.492;2023-04-25T11:56:36;7.60;;;4.10;;
65469;SDS011;52067;50.710;14.492;2023-04-25T11:59:03;7.90;;;3.78;;
65469;SDS011;52067;50.710;14.492;2023-04-25T12:06:42;7.88;;;3.90;;
65469;SDS011;52067;50.710;14.492;2023-04-25T12:09:09;4.53;;;3.80;;
65469;SDS011;52067;50.710;14.492;2023-04-25T12:11:42;4.60;;;2.97;;
65469;SDS011;52067;50.710;14.492;2023-04-25T12:19:13;6.57;;;2.80;;
65469;SDS011;52067;50.710;14.492;2023-04-25T12:21:39;4.78;;;3.00;;
65469;SDS011;52067;50.710;14.492;2023-04-25T12:24:17;6.88;;;3.10;;
65469;SDS011;52067;50.710;14.492;2023-04-25T12:27:09;6.45;;;3.10;;
65469;SDS011;52067;50.710;14.492;2023-04-25T12:29:34;3.97;;;2.80;;
65469;SDS011;52067;50.710;14.492;2023-04-25T12:31:59;5.68;;;2.72;;
65469;SDS011;52067;50.710;14.492;2023-04-25T12:34:27;6.53;;;3.00;;
65469;SDS011;52067;50.710;14.492;2023-04-25T12:36:53;4.05;;;2.63;;
65469;SDS011;52067;50.710;14.492;2023-04-25T12:39:22;6.38;;;3.10;;
65469;SDS011;52067;50.710;14.492;2023-04-25T12:41:49;8.65;;;3.33;;
65469;SDS011;52067;50.710;14.492;2023-04-25T12:44:15;3.42;;;2.92;;
65469;SDS011;52067;50.710;14.492;2023-04-25T12:46:42;5.57;;;3.00;;
65469;SDS011;52067;50.710;14.492;2023-04-25T12:49:07;9.20;;;3.63;;
65469;SDS011;52067;50.710;14.492;2023-04-25T12:51:33;6.03;;;3.40;;
65469;SDS011;52067;50.710;14.492;2023-04-25T12:53:59;4.65;;;3.00;;
65469;SDS011;52067;50.710;14.492;2023-04-25T12:56:28;6.20;;;3.65;;
65469;SDS011;52067;50.710;14.492;2023-04-25T12:58:54;5.25;;;3.20;;
65469;SDS011;52067;50.710;14.492;2023-04-25T13:01:20;7.45;;;4.35;;
65469;SDS011;52067;50.710;14.492;2023-04-25T13:03:46;6.35;;;3.70;;
65469;SDS011;52067;50.710;14.492;2023-04-25T13:06:13;6.95;;;4.05;;
65469;SDS011;52067;50.710;14.492;2023-04-25T13:08:38;6.55;;;4.30;;
65469;SDS011;52067;50.710;14.492;2023-04-25T13:11:04;7.20;;;4.13;;
65469;SDS011;52067;50.710;14.492;2023-04-25T13:13:30;8.57;;;4.32;;
65469;SDS011;52067;50.710;14.492;2023-04-25T13:15:56;7.72;;;4.18;;
65469;SDS011;52067;50.710;14.492;2023-04-25T13:18:22;7.47;;;4.03;;
65469;SDS011;52067;50.710;14.492;2023-04-25T13:20:51;6.55;;;4.13;;
65469;SDS011;52067;50.710;14.492;2023-04-25T13:23:17;6.45;;;4.20;;
65469;SDS011;52067;50.710;14.492;2023-04-25T13:25:42;10.35;;;4.47;;
65469;SDS011;52067;50.710;14.492;2023-04-25T13:28:08;12.77;;;5.00;;
65469;SDS011;52067;50.710;14.492;2023-04-25T13:30:33;13.00;;;5.03;;
65469;SDS011;52067;50.710;14.492;2023-04-25T13:32:58;7.40;;;3.78;;
65469;SDS011;52067;50.710;14.492;2023-04-25T13:35:28;8.82;;;4.13;;
65469;SDS011;52067;50.710;14.492;2023-04-25T13:37:54;8.90;;;3.85;;
65469;SDS011;52067;50.710;14.492;2023-04-25T13:40:19;8.05;;;3.42;;
65469;SDS011;52067;50.710;14.492;2023-04-25T13:42:45;6.68;;;3.30;;
65469;SDS011;52067;50.710;14.492;2023-04-25T13:45:11;5.63;;;3.25;;
65469;SDS011;52067;50.710;14.492;2023-04-25T13:47:36;12.27;;;4.10;;
65469;SDS011;52067;50.710;14.492;2023-04-25T13:50:02;4.57;;;2.25;;
65469;SDS011;52067;50.710;14.492;2023-04-25T13:52:28;4.18;;;2.60;;
65469;SDS011;52067;50.710;14.492;2023-04-25T13:54:54;4.00;;;2.53;;
65469;SDS011;52067;50.710;14.492;2023-04-25T13:57:19;2.78;;;1.60;;
65469;SDS011;52067;50.710;14.492;2023-04-25T13:59:45;3.78;;;2.00;;
65469;SDS011;52067;50.710;14.492;2023-04-25T14:02:11;3.90;;;2.30;;
65469;SDS011;52067;50.710;14.492;2023-04-25T14:04:37;11.50;;;2.97;;
65469;SDS011;52067;50.710;14.492;2023-04-25T14:07:02;7.90;;;3.60;;
65469;SDS011;52067;50.710;14.492;2023-04-25T14:09:28;6.32;;;2.53;;
65469;SDS011;52067;50.710;14.492;2023-04-25T14:11:54;6.25;;;2.90;;
65469;SDS011;52067;50.710;14.492;2023-04-25T14:14:21;3.65;;;1.85;;
65469;SDS011;52067;50.710;14.492;2023-04-25T14:16:48;6.53;;;2.10;;
65469;SDS011;52067;50.710;14.492;2023-04-25T14:19:15;3.72;;;1.73;;
65469;SDS011;52067;50.710;14.492;2023-04-25T14:21:40;9.50;;;2.40;;
65469;SDS011;52067;50.710;14.492;2023-04-25T14:24:06;7.28;;;2.97;;
65469;SDS011;52067;50.710;14.492;2023-04-25T14:26:34;6.50;;;2.55;;
65469;SDS011;52067;50.710;14.492;2023-04-25T14:29:01;4.07;;;2.00;;
65469;SDS011;52067;50.710;14.492;2023-04-25T14:31:26;9.40;;;2.97;;
65469;SDS011;52067;50.710;14.492;2023-04-25T14:33:52;6.82;;;2.33;;
65469;SDS011;52067;50.710;14.492;2023-04-25T14:36:18;2.95;;;2.08;;
65469;SDS011;52067;50.710;14.492;2023-04-25T14:38:43;5.60;;;2.33;;
65469;SDS011;52067;50.710;14.492;2023-04-25T14:41:09;8.07;;;4.22;;
65469;SDS011;52067;50.710;14.492;2023-04-25T14:43:34;7.03;;;2.65;;
65469;SDS011;52067;50.710;14.492;2023-04-25T14:46:01;6.28;;;2.70;;
65469;SDS011;52067;50.710;14.492;2023-04-25T14:48:27;9.88;;;3.30;;